Time;durP1;ratioP1;P1;durP2;ratioP2;P2;SDS_P1;SDS_P2;PMS_P1;PMS_P2;Temp;Humidity;BMP_temperature;BMP_pressure;BME280_temperature;BME280_humidity;BME280_pressure;Samples;Min_cycle;Max_cycle;Signal;HPM_P1;HPM_P2
2021/01/10 00:02:25;;;;;;;19.50;11.65;;;-0.70;99.90;;;;;;5025105;28;20037;-78
2021/01/10 00:04:51;;;;;;;18.65;10.10;;;;;;;;;;5025161;28;20562;-76
2021/01/10 00:07:22;;;;;;;22.02;10.35;;;-0.70;99.90;;;;;;5031115;28;20071;-78
2021/01/10 00:09:48;;;;;;;20.05;10.73;;;-0.70;99.90;;;;;;5027224;28;20540;-78
2021/01/10 00:12:14;;;;;;;19.98;10.25;;;;;;;;;;5009119;28;20037;-77
2021/01/10 00:14:41;;;;;;;19.52;10.15;;;-0.70;99.90;;;;;;5021400;28;20045;-78
2021/01/10 00:17:07;;;;;;;21.88;10.98;;;-0.70;99.90;;;;;;5025346;28;20072;-78
2021/01/10 00:19:32;;;;;;;18.08;10.10;;;-0.80;99.90;;;;;;5009997;28;20107;-78
2021/01/10 00:21:58;;;;;;;20.88;10.98;;;-0.80;99.90;;;;;;5028828;28;20053;-78
2021/01/10 00:24:24;;;;;;;19.73;10.70;;;-0.80;99.90;;;;;;5030506;28;20045;-78
2021/01/10 00:26:49;;;;;;;22.95;10.52;;;-0.80;99.90;;;;;;5019370;28;20511;-79
2021/01/10 00:29:15;;;;;;;19.15;10.07;;;-0.80;99.90;;;;;;5032271;28;20238;-77
2021/01/10 00:31:41;;;;;;;15.13;8.50;;;-0.80;99.90;;;;;;5024959;28;20275;-78
2021/01/10 00:34:06;;;;;;;18.92;9.75;;;-0.80;99.90;;;;;;5027823;28;20048;-80
2021/01/10 00:36:38;;;;;;;18.77;9.73;;;-0.80;99.90;;;;;;5029509;28;20518;-77
2021/01/10 00:39:05;;;;;;;17.90;10.13;;;-0.80;99.90;;;;;;5027097;28;20052;-77
2021/01/10 00:41:39;;;;;;;20.65;11.40;;;-0.80;99.90;;;;;;5029286;28;20487;-79
2021/01/10 00:44:05;;;;;;;21.77;11.82;;;-0.80;99.90;;;;;;5026914;28;20109;-79
2021/01/10 00:46:32;;;;;;;21.52;11.65;;;-0.90;99.90;;;;;;5034850;28;20034;-79
2021/01/10 00:48:57;;;;;;;21.83;11.52;;;-1.00;99.90;;;;;;5029155;28;20076;-78
2021/01/10 00:51:23;;;;;;;21.35;11.73;;;-0.90;99.90;;;;;;5026632;28;20553;-80
2021/01/10 00:53:50;;;;;;;21.98;11.80;;;-0.90;99.90;;;;;;5041886;28;20045;-80
2021/01/10 00:56:15;;;;;;;22.63;11.77;;;-1.00;99.90;;;;;;5007280;28;20082;-81
2021/01/10 00:58:41;;;;;;;24.15;11.80;;;-1.00;99.90;;;;;;5030146;28;20049;-79
2021/01/10 01:01:07;;;;;;;21.60;11.70;;;-1.00;99.90;;;;;;5013474;28;20049;-79
2021/01/10 01:03:33;;;;;;;23.45;11.85;;;;;;;;;;5036083;28;20056;-80
2021/01/10 01:05:59;;;;;;;18.50;10.85;;;-1.00;99.90;;;;;;5030530;28;20554;-78
2021/01/10 01:08:24;;;;;;;21.27;11.32;;;-1.00;99.90;;;;;;5028858;28;20041;-79
2021/01/10 01:10:50;;;;;;;19.75;10.50;;;-1.00;99.90;;;;;;5025367;28;20136;-79
2021/01/10 01:13:16;;;;;;;19.92;10.95;;;-1.00;99.90;;;;;;5038126;28;20037;-80
2021/01/10 01:15:42;;;;;;;22.58;11.15;;;-1.00;99.90;;;;;;5030087;28;20080;-79
2021/01/10 01:18:08;;;;;;;19.88;9.77;;;-1.00;99.90;;;;;;5022259;28;20072;-78
2021/01/10 01:20:34;;;;;;;18.33;9.27;;;-1.00;99.90;;;;;;5025491;28;20047;-77
2021/01/10 01:23:03;;;;;;;18.27;9.48;;;-1.00;99.90;;;;;;5031730;28;20071;-76
2021/01/10 01:25:29;;;;;;;17.02;9.45;;;-1.00;99.90;;;;;;5023044;28;20053;-78
2021/01/10 01:27:55;;;;;;;19.27;10.27;;;-1.00;99.90;;;;;;5040537;28;20394;-79
2021/01/10 01:30:21;;;;;;;18.03;10.10;;;-1.00;99.90;;;;;;5023001;28;20056;-78
2021/01/10 01:32:47;;;;;;;18.43;10.20;;;-1.00;99.90;;;;;;5020157;28;20590;-78
2021/01/10 01:35:13;;;;;;;27.40;11.43;;;-1.10;99.90;;;;;;5028840;28;20076;-78
2021/01/10 01:37:40;;;;;;;20.00;10.27;;;-1.10;99.90;;;;;;5027729;28;20127;-78
2021/01/10 01:40:10;;;;;;;19.97;10.10;;;-1.10;99.90;;;;;;5023082;28;20444;-79
2021/01/10 01:42:36;;;;;;;18.73;9.70;;;;;;;;;;5024211;28;20536;-79
2021/01/10 01:45:04;;;;;;;18.93;9.93;;;-1.10;99.90;;;;;;5026407;28;20063;-79
2021/01/10 01:47:31;;;;;;;17.30;8.57;;;-1.10;99.90;;;;;;5026586;28;20033;-79
2021/01/10 01:49:57;;;;;;;16.23;9.30;;;-1.10;99.90;;;;;;5025953;28;20041;-79
2021/01/10 01:52:22;;;;;;;17.10;8.93;;;-1.10;99.90;;;;;;5026585;28;20040;-78
2021/01/10 01:54:48;;;;;;;14.77;8.40;;;-1.10;99.90;;;;;;5006570;28;20053;-78
2021/01/10 01:57:14;;;;;;;15.67;8.63;;;-1.00;99.90;;;;;;5025742;28;20043;-79
2021/01/10 01:59:39;;;;;;;15.43;8.27;;;-1.00;99.90;;;;;;5022219;28;20080;-78
2021/01/10 02:02:09;;;;;;;23.70;9.37;;;-1.00;99.90;;;;;;5007287;28;20449;-77
2021/01/10 02:04:34;;;;;;;17.17;8.90;;;-1.00;99.90;;;;;;5035412;28;20041;-77
2021/01/10 02:07:19;;;;;;;19.30;9.10;;;-1.00;99.90;;;;;;5020136;28;20029;-78
2021/01/10 02:09:55;;;;;;;17.83;9.35;;;-1.10;99.90;;;;;;5025429;28;20495;-77
2021/01/10 02:12:22;;;;;;;16.80;9.18;;;-1.10;99.90;;;;;;5025056;28;20128;-77
2021/01/10 02:14:59;;;;;;;16.42;8.90;;;-1.20;99.90;;;;;;5027085;28;20040;-77
2021/01/10 02:17:27;;;;;;;21.47;10.63;;;-1.20;99.90;;;;;;5029618;28;20034;-78
2021/01/10 02:20:04;;;;;;;24.17;11.20;;;-1.20;99.90;;;;;;5039534;28;20095;-78
2021/01/10 02:22:33;;;;;;;21.33;11.55;;;-1.20;99.90;;;;;;5021481;28;20430;-77
2021/01/10 02:24:59;;;;;;;21.30;10.60;;;-1.30;99.90;;;;;;5017616;28;20065;-77
2021/01/10 02:27:24;;;;;;;22.88;10.57;;;-1.30;99.90;;;;;;5037352;28;20235;-78
2021/01/10 02:29:52;;;;;;;20.35;10.93;;;-1.30;99.90;;;;;;5026066;28;20459;-77
2021/01/10 02:32:20;;;;;;;21.10;11.00;;;-1.40;99.90;;;;;;5028112;28;20033;-78
2021/01/10 02:34:48;;;;;;;21.47;10.33;;;-1.40;99.90;;;;;;5024830;28;20419;-77
2021/01/10 02:37:46;;;;;;;18.35;9.90;;;-1.40;99.90;;;;;;5022072;28;20061;-76
2021/01/10 02:40:19;;;;;;;22.10;11.53;;;-1.40;99.90;;;;;;5029733;28;20026;-78
2021/01/10 02:42:55;;;;;;;17.63;9.90;;;-1.40;99.90;;;;;;5025319;28;20026;-78
2021/01/10 02:45:23;;;;;;;20.63;11.33;;;-1.40;99.90;;;;;;5024732;28;20048;-76
2021/01/10 02:47:48;;;;;;;22.70;10.67;;;-1.40;99.90;;;;;;5036191;28;20033;-75
2021/01/10 02:50:18;;;;;;;20.42;10.68;;;-1.30;99.90;;;;;;5027472;28;20041;-77
2021/01/10 02:52:48;;;;;;;19.65;10.90;;;-1.30;99.90;;;;;;5027323;28;22066;-76
2021/01/10 02:55:15;;;;;;;20.57;10.20;;;-1.30;99.90;;;;;;5023261;28;20088;-78
2021/01/10 02:57:53;;;;;;;20.53;10.43;;;-1.30;99.90;;;;;;5021856;28;20109;-77
2021/01/10 03:00:21;;;;;;;21.73;10.90;;;-1.40;99.90;;;;;;5025201;28;20765;-78
2021/01/10 03:02:47;;;;;;;20.87;10.80;;;-1.40;99.90;;;;;;5026454;28;20121;-78
2021/01/10 03:05:14;;;;;;;20.63;10.60;;;-1.40;99.90;;;;;;5029024;28;20594;-77
2021/01/10 03:07:41;;;;;;;22.88;11.68;;;-1.40;99.90;;;;;;5027024;28;20056;-79
2021/01/10 03:10:09;;;;;;;20.15;10.57;;;-1.50;99.90;;;;;;5045611;28;20037;-77
2021/01/10 03:12:35;;;;;;;20.80;11.02;;;-1.50;99.90;;;;;;5031876;28;20176;-77
2021/01/10 03:15:02;;;;;;;20.67;10.48;;;-1.50;99.90;;;;;;5026319;28;20048;-78
2021/01/10 03:17:36;;;;;;;21.37;10.83;;;-1.50;99.90;;;;;;5027230;28;20598;-78
2021/01/10 03:20:07;;;;;;;21.20;10.50;;;-1.50;99.90;;;;;;5023042;28;20037;-77
2021/01/10 03:22:33;;;;;;;18.55;10.02;;;-1.60;99.90;;;;;;5027704;28;20430;-78
2021/01/10 03:24:59;;;;;;;19.92;10.50;;;-1.60;99.90;;;;;;5027278;28;20168;-77
2021/01/10 03:27:25;;;;;;;22.17;11.43;;;-1.60;99.90;;;;;;5030154;28;20034;-77
2021/01/10 03:29:51;;;;;;;21.55;10.95;;;-1.70;99.90;;;;;;5028040;28;20041;-77
2021/01/10 03:32:16;;;;;;;20.42;11.35;;;-1.70;99.90;;;;;;5029425;28;20044;-77
2021/01/10 03:34:42;;;;;;;21.80;10.40;;;-1.70;99.90;;;;;;5021424;28;20391;-78
2021/01/10 03:37:08;;;;;;;21.60;10.65;;;-1.60;99.90;;;;;;5040259;28;20100;-79
2021/01/10 03:39:34;;;;;;;22.00;11.75;;;-1.60;99.90;;;;;;5023304;28;20043;-77
2021/01/10 03:41:59;;;;;;;24.15;11.32;;;-1.60;99.90;;;;;;5023600;28;20042;-78
2021/01/10 03:44:25;;;;;;;24.15;11.05;;;-1.60;99.90;;;;;;5034480;28;20037;-77
2021/01/10 03:46:51;;;;;;;20.93;10.77;;;-1.60;99.90;;;;;;5032474;28;20518;-77
2021/01/10 03:49:17;;;;;;;22.13;10.87;;;-1.50;99.90;;;;;;5031581;28;20052;-78
2021/01/10 03:51:43;;;;;;;18.07;10.13;;;-1.50;99.90;;;;;;5026115;28;20490;-77
2021/01/10 03:54:08;;;;;;;19.60;9.80;;;-1.50;99.90;;;;;;5028331;28;20072;-77
2021/01/10 03:56:34;;;;;;;18.90;10.13;;;-1.50;99.90;;;;;;5024295;28;20490;-78
2021/01/10 03:58:59;;;;;;;21.08;10.35;;;-1.50;99.90;;;;;;5023497;28;20040;-78
2021/01/10 04:01:25;;;;;;;17.83;9.33;;;-1.50;99.90;;;;;;5031710;28;20037;-78
2021/01/10 04:03:51;;;;;;;19.20;9.67;;;-1.50;99.90;;;;;;5010644;28;20045;-78
2021/01/10 04:06:17;;;;;;;20.63;10.37;;;-1.50;99.90;;;;;;5029083;28;20034;-77
2021/01/10 04:08:46;;;;;;;19.30;9.85;;;-1.60;99.90;;;;;;5009280;28;20046;-78
2021/01/10 04:11:12;;;;;;;16.80;9.20;;;-1.60;99.90;;;;;;5022466;28;20100;-77
2021/01/10 04:13:39;;;;;;;18.43;8.87;;;-1.70;99.90;;;;;;5028744;28;20121;-77
2021/01/10 04:16:05;;;;;;;19.07;9.30;;;-1.60;99.90;;;;;;5030210;28;20585;-78
2021/01/10 04:18:31;;;;;;;19.73;10.10;;;-1.70;99.90;;;;;;5022908;28;20021;-78
2021/01/10 04:20:57;;;;;;;19.27;9.63;;;-1.70;99.90;;;;;;5021569;28;20460;-79
2021/01/10 04:23:22;;;;;;;20.70;10.57;;;-1.60;99.90;;;;;;5029243;28;20048;-76
2021/01/10 04:25:49;;;;;;;17.27;8.27;;;-1.60;99.90;;;;;;5009263;28;20132;-77
2021/01/10 04:28:16;;;;;;;17.80;8.87;;;-1.30;99.90;;;;;;5022680;28;20068;-79
2021/01/10 04:30:42;;;;;;;18.93;9.43;;;-1.60;99.90;;;;;;5032408;28;20037;-78
2021/01/10 04:33:08;;;;;;;16.33;8.32;;;-1.60;99.90;;;;;;5006546;28;20617;-78
2021/01/10 04:35:34;;;;;;;14.80;8.67;;;-1.60;99.90;;;;;;5027769;28;20541;-78
2021/01/10 04:37:59;;;;;;;14.27;7.67;;;-1.60;99.90;;;;;;5027171;28;20041;-78
2021/01/10 04:40:25;;;;;;;17.20;9.00;;;-1.60;99.90;;;;;;5007868;28;20131;-78
2021/01/10 04:42:52;;;;;;;15.10;8.37;;;-1.60;99.90;;;;;;5026913;28;20109;-77
2021/01/10 04:45:18;;;;;;;16.67;8.73;;;-1.60;99.90;;;;;;5035922;28;20037;-77
2021/01/10 04:47:44;;;;;;;14.48;8.50;;;-1.60;99.90;;;;;;5025711;28;20064;-78
2021/01/10 04:50:10;;;;;;;20.27;9.68;;;-1.60;99.90;;;;;;5025127;28;20061;-78
2021/01/10 04:52:38;;;;;;;17.27;8.88;;;-1.60;99.90;;;;;;5010263;28;20042;-78
2021/01/10 04:55:05;;;;;;;20.07;8.77;;;-1.60;99.90;;;;;;5028388;28;20076;-78
2021/01/10 04:57:33;;;;;;;19.00;9.53;;;-1.60;99.90;;;;;;5021265;28;20071;-78
2021/01/10 04:59:59;;;;;;;15.77;9.03;;;-1.60;99.90;;;;;;5021163;28;20038;-79
2021/01/10 05:02:27;;;;;;;16.20;8.57;;;-1.60;99.90;;;;;;5020957;28;20502;-78
2021/01/10 05:04:56;;;;;;;17.60;9.47;;;-1.60;99.90;;;;;;5021135;28;20037;-79
2021/01/10 05:07:22;;;;;;;16.03;8.33;;;-1.70;99.90;;;;;;5027735;28;20033;-78
2021/01/10 05:09:47;;;;;;;17.00;8.80;;;-1.70;99.90;;;;;;5020504;28;20046;-75
2021/01/10 05:12:14;;;;;;;15.77;8.43;;;-1.70;99.90;;;;;;5027236;28;20510;-78
2021/01/10 05:14:40;;;;;;;15.80;8.23;;;-1.70;99.90;;;;;;5025581;28;20048;-77
2021/01/10 05:17:15;;;;;;;15.63;8.47;;;-1.70;99.90;;;;;;5020744;28;20045;-78
2021/01/10 05:19:45;;;;;;;16.33;8.67;;;-1.70;99.90;;;;;;5026807;28;20052;-78
2021/01/10 05:22:11;;;;;;;15.05;8.02;;;-1.80;99.90;;;;;;5042384;28;20091;-79
2021/01/10 05:24:36;;;;;;;17.93;8.63;;;-1.80;99.90;;;;;;5026938;28;20120;-77
2021/01/10 05:27:02;;;;;;;15.97;8.53;;;-1.80;99.90;;;;;;5027800;28;20041;-79
2021/01/10 05:29:30;;;;;;;15.50;8.03;;;-1.80;99.90;;;;;;5028655;28;20116;-78
2021/01/10 05:31:56;;;;;;;16.67;8.20;;;-1.80;99.90;;;;;;5025021;28;20116;-79
2021/01/10 05:34:23;;;;;;;19.10;9.80;;;-1.90;99.90;;;;;;5029864;28;20096;-80
2021/01/10 05:36:49;;;;;;;20.30;9.50;;;-1.90;99.90;;;;;;5028343;28;20040;-77
2021/01/10 05:39:17;;;;;;;15.67;8.50;;;-1.90;99.90;;;;;;5023534;28;20584;-80
2021/01/10 05:41:54;;;;;;;17.73;9.00;;;-1.90;99.90;;;;;;5023328;28;20045;-78
2021/01/10 05:44:23;;;;;;;18.60;8.90;;;-1.90;99.90;;;;;;5021862;28;20077;-77
2021/01/10 05:46:49;;;;;;;17.50;9.23;;;-1.90;99.90;;;;;;5025499;28;20034;-79
2021/01/10 05:49:20;;;;;;;14.63;8.10;;;-1.90;99.90;;;;;;5026039;28;20042;-78
2021/01/10 05:51:47;;;;;;;18.17;8.75;;;-1.90;99.90;;;;;;5026421;28;20037;-78
2021/01/10 05:54:44;;;;;;;16.00;8.80;;;-1.90;99.90;;;;;;5021698;28;20045;-78
2021/01/10 05:57:11;;;;;;;19.10;8.87;;;-1.90;99.90;;;;;;5028919;28;20033;-78
2021/01/10 05:59:45;;;;;;;18.40;9.40;;;-1.90;99.90;;;;;;5007534;28;20511;-78
2021/01/10 06:02:11;;;;;;;18.23;9.60;;;-1.90;99.90;;;;;;5028366;28;20034;-76
2021/01/10 06:04:37;;;;;;;16.97;9.03;;;-1.90;99.90;;;;;;5027141;28;20117;-78
2021/01/10 06:07:04;;;;;;;15.97;8.40;;;-1.90;99.90;;;;;;5028281;28;20112;-77
2021/01/10 06:09:43;;;;;;;18.33;9.27;;;-1.90;99.90;;;;;;5023731;28;20048;-78
2021/01/10 06:12:28;;;;;;;18.60;9.17;;;-1.90;99.90;;;;;;5031428;28;20080;-78
2021/01/10 06:15:13;;;;;;;15.77;7.83;;;-1.90;99.90;;;;;;5023581;28;20030;-77
2021/01/10 06:17:43;;;;;;;15.03;8.50;;;-1.80;99.90;;;;;;5041205;28;20128;-78
2021/01/10 06:20:23;;;;;;;15.17;8.00;;;-1.80;99.90;;;;;;5023722;28;20052;-78
2021/01/10 06:22:56;;;;;;;19.27;9.17;;;-1.80;99.90;;;;;;5027838;28;20295;-76
2021/01/10 06:25:27;;;;;;;18.50;8.10;;;-1.80;99.90;;;;;;5023359;28;20201;-78
2021/01/10 06:28:11;;;;;;;18.42;9.55;;;-1.80;99.90;;;;;;5019597;28;20041;-79
2021/01/10 06:30:40;;;;;;;17.77;9.37;;;-1.80;99.90;;;;;;5022251;28;20462;-78
2021/01/10 06:33:20;;;;;;;17.43;8.50;;;-1.80;99.90;;;;;;5027573;28;20465;-77
2021/01/10 06:35:51;;;;;;;14.50;8.10;;;-1.80;99.90;;;;;;5020087;28;20462;-77
2021/01/10 06:38:22;;;;;;;19.17;8.52;;;-1.70;99.90;;;;;;5026874;28;20506;-77
2021/01/10 06:41:14;;;;;;;16.17;8.27;;;-1.80;99.90;;;;;;5022224;28;20041;-78
2021/01/10 06:43:43;;;;;;;14.70;7.70;;;-1.20;99.90;;;;;;5021808;28;20033;-78
2021/01/10 06:46:10;;;;;;;16.53;8.87;;;-1.80;99.90;;;;;;5022951;28;20041;-77
2021/01/10 06:48:36;;;;;;;16.87;8.90;;;-1.80;99.90;;;;;;5021029;28;20064;-76
2021/01/10 06:51:04;;;;;;;16.63;8.60;;;-1.80;99.90;;;;;;5020575;28;20447;-79
2021/01/10 06:53:30;;;;;;;17.97;8.90;;;-1.90;99.90;;;;;;5021738;28;20111;-80
2021/01/10 06:55:56;;;;;;;14.13;8.17;;;-1.90;99.90;;;;;;5024025;28;20068;-75
2021/01/10 06:58:22;;;;;;;16.70;8.63;;;-1.90;99.90;;;;;;5020150;28;20579;-77
2021/01/10 07:00:58;;;;;;;19.30;8.80;;;-2.00;99.90;;;;;;5010071;28;20072;-77
2021/01/10 07:03:25;;;;;;;16.03;8.17;;;-2.00;99.90;;;;;;5024068;28;20116;-76
2021/01/10 07:06:13;;;;;;;19.10;9.97;;;-2.00;99.90;;;;;;5026977;28;20538;-78
2021/01/10 07:08:53;;;;;;;18.43;9.40;;;-2.00;99.90;;;;;;5021125;28;20041;-79
2021/01/10 07:11:22;;;;;;;19.00;9.73;;;-2.10;99.90;;;;;;5019018;28;20025;-78
2021/01/10 07:13:49;;;;;;;16.60;8.67;;;-2.10;99.90;;;;;;5023700;28;20021;-78
2021/01/10 07:16:24;;;;;;;18.87;9.80;;;-2.10;99.90;;;;;;5025566;28;20084;-80
2021/01/10 07:18:49;;;;;;;18.07;9.40;;;-2.20;99.90;;;;;;5022710;28;20048;-79
2021/01/10 07:21:40;;;;;;;18.57;9.13;;;-2.20;99.90;;;;;;5030643;28;20037;-78
2021/01/10 07:24:15;;;;;;;20.97;9.77;;;-2.20;99.90;;;;;;5026070;28;20033;-80
2021/01/10 07:26:51;;;;;;;18.77;9.33;;;-2.20;99.90;;;;;;5031142;28;20641;-77
2021/01/10 07:29:38;;;;;;;18.87;10.30;;;-2.10;99.90;;;;;;5027970;28;20503;-78
2021/01/10 07:32:10;;;;;;;17.60;9.03;;;-2.10;99.90;;;;;;5024858;28;20109;-78
2021/01/10 07:34:56;;;;;;;17.70;9.23;;;-2.10;99.90;;;;;;5027643;28;20036;-79
2021/01/10 07:37:25;;;;;;;19.10;9.30;;;-2.10;99.90;;;;;;5012883;28;20041;-79
2021/01/10 07:39:56;;;;;;;19.90;9.33;;;-2.10;99.90;;;;;;5027542;28;20069;-77
2021/01/10 07:42:32;;;;;;;17.45;8.73;;;-2.00;99.90;;;;;;5024358;28;20033;-77
2021/01/10 07:45:00;;;;;;;18.57;9.73;;;-2.00;99.90;;;;;;5021097;28;20025;-78
2021/01/10 07:47:32;;;;;;;18.13;9.60;;;-2.00;99.90;;;;;;5041198;28;20116;-80
2021/01/10 07:49:59;;;;;;;17.70;9.50;;;-2.00;99.90;;;;;;5032825;28;20041;-77
2021/01/10 07:52:46;;;;;;;20.27;10.50;;;-1.90;99.90;;;;;;5022236;28;20066;-76
2021/01/10 07:55:18;;;;;;;19.90;9.37;;;-1.90;99.90;;;;;;5026948;28;20044;-77
2021/01/10 07:58:00;;;;;;;14.53;8.17;;;-1.90;99.90;;;;;;5026263;28;20384;-77
2021/01/10 08:00:31;;;;;;;17.30;9.23;;;-1.90;99.90;;;;;;5019604;28;20044;-77
2021/01/10 08:03:17;;;;;;;19.45;8.77;;;-1.90;99.90;;;;;;5024306;28;20272;-78
2021/01/10 08:05:55;;;;;;;16.40;8.97;;;-1.90;99.90;;;;;;5025933;28;20048;-78
2021/01/10 08:08:41;;;;;;;16.67;9.27;;;-1.80;99.90;;;;;;5020740;28;20422;-79
2021/01/10 08:11:08;;;;;;;18.87;9.27;;;-1.70;99.90;;;;;;5024153;28;20029;-78
2021/01/10 08:13:38;;;;;;;16.10;9.33;;;-1.80;99.90;;;;;;5022198;28;20514;-77
2021/01/10 08:16:04;;;;;;;;;;;-1.70;99.90;;;;;;5023435;28;20088;-79
2021/01/10 08:18:41;;;;;;;16.80;9.13;;;-1.70;99.90;;;;;;5017918;28;19967;-78
2021/01/10 08:21:12;;;;;;;16.97;8.77;;;-1.70;99.90;;;;;;5021386;28;20132;-78
2021/01/10 08:23:41;;;;;;;21.90;12.15;;;-1.70;99.90;;;;;;5020906;28;20147;-78
2021/01/10 08:26:15;;;;;;;16.80;9.30;;;-1.60;99.90;;;;;;5017834;28;20418;-78
2021/01/10 08:28:45;;;;;;;16.47;9.03;;;-1.60;99.90;;;;;;5025298;28;20029;-77
2021/01/10 08:31:20;;;;;;;20.42;10.00;;;-1.60;99.90;;;;;;5025021;28;20038;-78
2021/01/10 08:33:46;;;;;;;19.17;9.63;;;-1.60;99.90;;;;;;5007357;28;20046;-76
2021/01/10 08:36:20;;;;;;;20.87;10.80;;;-1.60;99.90;;;;;;5018035;28;20021;-77
2021/01/10 08:39:09;;;;;;;17.60;9.73;;;-1.60;99.90;;;;;;5033892;28;20069;-77
2021/01/10 08:41:41;;;;;;;20.07;10.97;;;-1.60;99.90;;;;;;5025071;28;20076;-78
2021/01/10 08:44:15;;;;;;;17.90;9.50;;;-1.60;99.90;;;;;;5032025;28;20037;-78
2021/01/10 08:46:43;;;;;;;19.35;9.30;;;-1.60;99.90;;;;;;5021876;28;20037;-75
2021/01/10 08:49:08;;;;;;;20.02;10.18;;;-1.60;99.90;;;;;;5016150;28;20084;-76
2021/01/10 08:51:38;;;;;;;26.50;13.90;;;-1.50;99.90;;;;;;5019108;28;20459;-78
2021/01/10 08:54:14;;;;;;;18.73;10.27;;;-1.50;99.90;;;;;;5023070;28;20045;-78
2021/01/10 08:56:41;;;;;;;21.37;10.37;;;-1.50;99.90;;;;;;5018843;28;20411;-78
2021/01/10 08:59:08;;;;;;;18.48;9.68;;;-1.40;99.90;;;;;;5013954;28;20111;-78
2021/01/10 09:01:34;;;;;;;16.52;8.90;;;-1.40;99.90;;;;;;5017456;28;21639;-78
2021/01/10 09:04:07;;;;;;;17.10;10.02;;;-1.30;99.90;;;;;;5029090;28;20033;-78
2021/01/10 09:06:36;;;;;;;19.08;9.70;;;-1.20;99.90;;;;;;5024001;28;20087;-78
2021/01/10 09:09:07;;;;;;;19.73;10.73;;;-1.20;99.90;;;;;;5023755;28;20033;-78
2021/01/10 09:11:34;;;;;;;16.67;9.13;;;-1.20;99.90;;;;;;5021714;28;20073;-78
2021/01/10 09:14:02;;;;;;;18.38;10.30;;;-1.10;99.90;;;;;;5018459;28;20034;-78
2021/01/10 09:16:33;;;;;;;16.50;9.90;;;-1.00;99.90;;;;;;5027810;28;20038;-79
2021/01/10 09:19:01;;;;;;;19.48;9.82;;;-1.00;99.90;;;;;;5020837;28;20043;-79
2021/01/10 09:21:28;;;;;;;17.33;9.35;;;-0.90;99.90;;;;;;5021075;28;20041;-77
2021/01/10 09:23:56;;;;;;;18.15;9.63;;;-0.80;99.90;;;;;;5035806;28;20511;-78
2021/01/10 09:26:32;;;;;;;17.17;9.70;;;-0.80;99.90;;;;;;5001761;28;20038;-78
2021/01/10 09:28:59;;;;;;;16.80;8.90;;;-0.60;99.90;;;;;;5022772;28;20073;-78
2021/01/10 09:31:46;;;;;;;16.00;8.65;;;-0.60;99.90;;;;;;5023619;28;20046;-79
2021/01/10 09:34:12;;;;;;;16.02;8.73;;;-0.20;99.90;;;;;;5027626;28;20273;-77
2021/01/10 09:36:38;;;;;;;16.05;9.07;;;-0.30;99.90;;;;;;5027737;28;20042;-80
2021/01/10 09:39:06;;;;;;;16.33;8.32;;;-0.20;99.90;;;;;;5032706;28;20043;-78
2021/01/10 09:41:31;;;;;;;14.95;8.30;;;-0.10;99.70;;;;;;5028625;28;20032;-78
2021/01/10 09:44:01;;;;;;;14.70;8.40;;;0.00;99.70;;;;;;5030959;28;20042;-79
2021/01/10 09:46:37;;;;;;;14.32;8.10;;;0.00;99.60;;;;;;5023709;28;20160;-77
2021/01/10 09:49:07;;;;;;;15.90;8.18;;;0.00;99.80;;;;;;5030249;28;20053;-77
2021/01/10 09:51:40;;;;;;;17.13;9.00;;;0.10;99.70;;;;;;5028065;28;20180;-77
2021/01/10 09:54:15;;;;;;;15.48;8.77;;;0.10;99.40;;;;;;5026816;28;20049;-78
2021/01/10 09:56:41;;;;;;;15.23;8.60;;;0.10;99.60;;;;;;5023797;28;20038;-77
2021/01/10 09:59:38;;;;;;;16.80;8.40;;;0.10;99.50;;;;;;5024170;28;20088;-76
2021/01/10 10:02:11;;;;;;;13.13;7.80;;;0.20;99.20;;;;;;5048981;28;20042;-75
2021/01/10 10:04:37;;;;;;;17.10;8.38;;;0.30;99.40;;;;;;5029472;28;20051;-77
2021/01/10 10:07:07;;;;;;;16.63;9.20;;;0.40;99.10;;;;;;5032793;28;20124;-78
2021/01/10 10:09:44;;;;;;;15.80;9.32;;;0.30;99.20;;;;;;5023805;28;20041;-78
2021/01/10 10:12:11;;;;;;;14.07;7.60;;;;;;;;;;5026453;28;20235;-76
2021/01/10 10:14:37;;;;;;;13.63;8.02;;;0.60;98.50;;;;;;5030760;28;20109;-77
2021/01/10 10:17:02;;;;;;;13.32;7.93;;;0.50;98.50;;;;;;5016315;28;20037;-77
2021/01/10 10:19:28;;;;;;;13.48;7.28;;;1.00;98.80;;;;;;5013507;28;20030;-77
2021/01/10 10:21:54;;;;;;;13.02;7.68;;;0.70;98.70;;;;;;5022705;28;20412;-77
2021/01/10 10:24:19;;;;;;;14.23;7.85;;;0.70;98.30;;;;;;5029907;28;20026;-76
2021/01/10 10:26:45;;;;;;;13.40;7.70;;;0.70;98.30;;;;;;5027252;28;20391;-77
2021/01/10 10:29:11;;;;;;;11.43;6.50;;;;;;;;;;5023523;28;20361;-77
2021/01/10 10:31:37;;;;;;;14.00;8.13;;;0.80;97.90;;;;;;5021268;28;20041;-75
2021/01/10 10:34:03;;;;;;;13.93;8.07;;;0.80;98.00;;;;;;5026389;28;20077;-75
2021/01/10 10:36:28;;;;;;;15.02;7.32;;;0.80;98.30;;;;;;5022425;28;20566;-77
2021/01/10 10:38:54;;;;;;;12.55;7.38;;;1.00;97.80;;;;;;5029397;28;20033;-79
2021/01/10 10:41:20;;;;;;;13.32;6.93;;;1.00;97.40;;;;;;5030525;28;20068;-77
2021/01/10 10:43:46;;;;;;;11.88;7.15;;;1.10;97.20;;;;;;5026543;28;20499;-78
2021/01/10 10:46:11;;;;;;;13.50;7.75;;;1.20;96.80;;;;;;4986394;28;20114;-76
2021/01/10 10:48:37;;;;;;;14.20;8.18;;;1.20;96.90;;;;;;5022833;28;20041;-78
2021/01/10 10:51:03;;;;;;;14.13;6.90;;;1.30;96.90;;;;;;5020669;28;20046;-77
2021/01/10 10:53:29;;;;;;;11.13;6.50;;;1.20;96.80;;;;;;5021205;28;20086;-77
2021/01/10 10:55:54;;;;;;;11.95;7.22;;;1.30;96.60;;;;;;5006696;28;20388;-76
2021/01/10 10:58:20;;;;;;;12.65;6.75;;;1.20;96.60;;;;;;5015814;28;20045;-77
2021/01/10 11:00:45;;;;;;;12.77;6.82;;;1.30;96.40;;;;;;5018841;28;20140;-77
2021/01/10 11:03:11;;;;;;;10.88;6.50;;;1.40;96.10;;;;;;4999692;28;20038;-77
2021/01/10 11:05:37;;;;;;;10.13;5.93;;;1.50;95.60;;;;;;5018282;28;20488;-78
2021/01/10 11:08:03;;;;;;;12.00;6.55;;;1.50;95.70;;;;;;5020846;28;20060;-76
2021/01/10 11:10:28;;;;;;;11.10;6.05;;;1.50;95.70;;;;;;5004453;28;20045;-77
2021/01/10 11:12:54;;;;;;;12.02;6.63;;;1.50;96.00;;;;;;5029702;28;20144;-77
2021/01/10 11:15:20;;;;;;;11.52;7.47;;;1.50;95.60;;;;;;5027399;28;20037;-77
2021/01/10 11:17:46;;;;;;;10.05;6.18;;;1.50;95.90;;;;;;5011504;28;20081;-77
2021/01/10 11:20:12;;;;;;;12.10;6.70;;;1.60;95.60;;;;;;4983867;28;20486;-79
2021/01/10 11:22:38;;;;;;;11.15;6.20;;;1.60;95.30;;;;;;5002681;28;20491;-78
2021/01/10 11:25:07;;;;;;;11.23;6.45;;;1.60;95.00;;;;;;5023495;28;20041;-78
2021/01/10 11:27:33;;;;;;;10.15;5.95;;;1.60;95.20;;;;;;5015579;28;20560;-78
2021/01/10 11:29:59;;;;;;;12.43;5.82;;;1.60;95.20;;;;;;5018338;28;20045;-77
2021/01/10 11:32:25;;;;;;;9.70;5.93;;;1.70;95.30;;;;;;5026170;28;20045;-77
2021/01/10 11:34:51;;;;;;;10.95;5.75;;;1.80;95.00;;;;;;5028697;28;20052;-78
2021/01/10 11:37:17;;;;;;;14.05;7.10;;;1.90;94.70;;;;;;5016182;28;20498;-77
2021/01/10 11:39:42;;;;;;;11.02;6.00;;;1.90;94.70;;;;;;5022771;28;20453;-76
2021/01/10 11:42:13;;;;;;;11.40;5.82;;;1.80;94.20;;;;;;5020498;28;20052;-76
2021/01/10 11:44:39;;;;;;;9.60;5.68;;;1.90;94.20;;;;;;5021703;28;20112;-77
2021/01/10 11:47:06;;;;;;;8.90;5.13;;;2.00;94.10;;;;;;5020852;28;20034;-80
2021/01/10 11:49:32;;;;;;;8.95;5.15;;;2.20;94.20;;;;;;5025476;28;20045;-78
2021/01/10 11:51:57;;;;;;;9.05;5.25;;;2.20;93.30;;;;;;5023139;28;20038;-80
2021/01/10 11:54:23;;;;;;;9.07;5.28;;;2.10;93.10;;;;;;5008693;28;20037;-79
2021/01/10 11:56:49;;;;;;;8.13;4.60;;;2.30;93.60;;;;;;5030636;28;20257;-78
2021/01/10 11:59:16;;;;;;;8.52;5.05;;;2.40;93.30;;;;;;5023063;28;20445;-78
2021/01/10 12:01:43;;;;;;;8.40;5.05;;;2.40;92.50;;;;;;5022305;28;20026;-77
2021/01/10 12:04:09;;;;;;;8.10;4.85;;;2.40;92.80;;;;;;5028515;28;20451;-77
2021/01/10 12:06:36;;;;;;;9.13;4.88;;;2.40;93.00;;;;;;5021951;28;20029;-76
2021/01/10 12:09:15;;;;;;;7.93;5.00;;;2.30;92.90;;;;;;5030732;28;20041;-78
2021/01/10 12:11:41;;;;;;;7.18;4.55;;;2.40;92.70;;;;;;5039998;28;20086;-77
2021/01/10 12:14:08;;;;;;;9.02;5.35;;;2.40;92.20;;;;;;5007987;28;20071;-78
2021/01/10 12:16:37;;;;;;;7.10;4.47;;;2.40;92.70;;;;;;5039378;28;20033;-79
2021/01/10 12:19:04;;;;;;;7.43;4.72;;;2.50;92.30;;;;;;5030987;28;20052;-75
2021/01/10 12:21:30;;;;;;;7.38;4.53;;;;;;;;;;5025874;28;20087;-81
2021/01/10 12:23:56;;;;;;;7.65;4.50;;;2.60;91.60;;;;;;5032500;28;20037;-79
2021/01/10 12:26:21;;;;;;;7.93;4.90;;;2.60;91.40;;;;;;5034778;28;20133;-80
2021/01/10 12:28:48;;;;;;;8.27;4.25;;;;;;;;;;5010246;28;20048;-81
2021/01/10 12:31:16;;;;;;;8.45;4.78;;;2.60;91.20;;;;;;5030126;28;20447;-79
2021/01/10 12:33:42;;;;;;;7.88;4.65;;;2.80;90.40;;;;;;5022304;28;20045;-78
2021/01/10 12:36:10;;;;;;;7.45;4.35;;;2.80;90.30;;;;;;5003794;28;20041;-79
2021/01/10 12:38:36;;;;;;;6.38;4.05;;;;;;;;;;5018812;28;20045;-78
2021/01/10 12:41:03;;;;;;;6.45;3.83;;;;;;;;;;5024624;28;20048;-78
2021/01/10 12:43:29;;;;;;;6.50;3.83;;;;;;;;;;5022693;28;20035;-76
2021/01/10 12:45:54;;;;;;;6.35;3.85;;;3.10;86.20;;;;;;5013645;28;20038;-77
2021/01/10 12:48:20;;;;;;;6.20;4.07;;;;;;;;;;5027342;28;20036;-79
2021/01/10 12:50:47;;;;;;;7.57;4.38;;;2.90;87.40;;;;;;5016594;28;20081;-78